Subpeak Weather

  • Time Avg. Air Temp Dew Point Avg. Rel Humidity Avg. 2 Min Wind Speed Max Gust Velocity MGV Time MGV Direction Avg. Spot Wind Velocity
    2017-01-21 13:35:00-8° C-11° C81%19 km/h25 km/h2017-01-21 13:33:10SE21 km/h
    2017-01-21 12:35:00-8° C-12° C74%22 km/h28 km/h2017-01-21 12:35:10SE16 km/h
    2017-01-21 11:35:00-8° C-12° C74%20 km/h25 km/h2017-01-21 11:32:10SE18 km/h
    2017-01-21 10:35:00-9° C-13° C73%18 km/h25 km/h2017-01-21 10:34:10SE17 km/h
    2017-01-21 09:35:00-8° C-12° C73%13 km/h20 km/h2017-01-21 09:35:10SE16 km/h
    2017-01-21 08:35:00-9° C-12° C78%19 km/h26 km/h2017-01-21 08:33:10E18 km/h
    2017-01-21 07:35:00-9° C-12° C81%20 km/h25 km/h2017-01-21 07:34:10SE19 km/h
    2017-01-21 06:35:00-9° C-12° C83%9 km/h18 km/h2017-01-21 06:32:10SE11 km/h
    2017-01-21 05:35:00-9° C-12° C82%21 km/h25 km/h2017-01-21 05:32:10SE21 km/h
    2017-01-21 04:35:00-10° C-12° C84%19 km/h21 km/h2017-01-21 04:31:00SE18 km/h
    2017-01-21 03:35:00-10° C-12° C84%17 km/h22 km/h2017-01-21 03:34:10SE19 km/h
    2017-01-21 02:35:00-10° C-12° C85%13 km/h17 km/h2017-01-21 02:33:10SE14 km/h
    2017-01-21 01:35:00-10° C-12° C86%15 km/h19 km/h2017-01-21 01:35:10E13 km/h
    2017-01-21 00:35:00-10° C-12° C87%14 km/h23 km/h2017-01-21 00:33:10E15 km/h
    2017-01-20 23:35:00-10° C-11° C88%21 km/h28 km/h2017-01-20 23:33:10SE22 km/h
    2017-01-20 22:35:00-10° C-11° C88%17 km/h28 km/h2017-01-20 22:32:10E20 km/h
    2017-01-20 21:35:00-10° C-11° C89%18 km/h27 km/h2017-01-20 21:34:10E20 km/h
    2017-01-20 20:35:00-10° C-11° C89%23 km/h30 km/h2017-01-20 20:32:10E22 km/h
    2017-01-20 19:35:00-10° C-11° C89%25 km/h31 km/h2017-01-20 19:31:00E24 km/h
    2017-01-20 18:35:00-9° C-11° C90%19 km/h28 km/h2017-01-20 18:32:10SE19 km/h
    2017-01-20 17:35:00-9° C-11° C90%11 km/h23 km/h2017-01-20 17:32:10E13 km/h
    2017-01-20 16:35:00-9° C-11° C90%19 km/h28 km/h2017-01-20 16:35:10SE19 km/h
    2017-01-20 15:35:00-10° C-11° C89%16 km/h21 km/h2017-01-20 15:33:10SE16 km/h
    2017-01-20 14:35:00-10° C-11° C89%18 km/h23 km/h2017-01-20 14:32:10E17 km/h
  • Time Avg. Air Temp Dew Point Avg. Rel Humidity Avg. 2 Min Wind Speed Max Gust Velocity MGV Time MGV Direction Avg. Spot Wind Velocity
    2017-01-21 13:35:00-8° C-11° C81%19 km/h25 km/h2017-01-21 13:33:10SE21 km/h
    2017-01-21 13:30:00-8° C-11° C81%20 km/h24 km/h2017-01-21 13:26:00SE21 km/h
    2017-01-21 13:25:00-8° C-11° C80%23 km/h27 km/h2017-01-21 13:25:10SE22 km/h
    2017-01-21 13:20:00-8° C-11° C79%24 km/h28 km/h2017-01-21 13:19:10SE22 km/h
    2017-01-21 13:15:00-8° C-12° C78%23 km/h29 km/h2017-01-21 13:11:00SE20 km/h
    2017-01-21 13:10:00-8° C-12° C78%22 km/h28 km/h2017-01-21 13:08:10SE24 km/h
    2017-01-21 13:05:00-8° C-12° C77%25 km/h28 km/h2017-01-21 13:04:10SE24 km/h
    2017-01-21 13:00:00-8° C-11° C77%18 km/h25 km/h2017-01-21 12:58:10SE20 km/h
    2017-01-21 12:55:00-8° C-12° C77%20 km/h25 km/h2017-01-21 12:54:10SE19 km/h
    2017-01-21 12:50:00-8° C-11° C76%19 km/h24 km/h2017-01-21 12:46:00SE20 km/h
    2017-01-21 12:45:00-8° C-12° C73%20 km/h23 km/h2017-01-21 12:44:10SE20 km/h
    2017-01-21 12:40:00-8° C-12° C73%19 km/h25 km/h2017-01-21 12:36:00SE16 km/h
    2017-01-21 12:35:00-8° C-12° C74%22 km/h28 km/h2017-01-21 12:35:10SE16 km/h